createdAt,value
2018-12-19T00:01:45.894Z,19.27
2018-12-19T00:04:11.783Z,18.03
2018-12-19T00:06:37.634Z,20.30
2018-12-19T00:09:05.446Z,18.43
2018-12-19T00:11:31.315Z,20.10
2018-12-19T00:13:57.179Z,19.07
2018-12-19T00:16:23.033Z,19.27
2018-12-19T00:18:48.890Z,17.63
2018-12-19T00:21:14.714Z,20.63
2018-12-19T00:23:40.530Z,18.50
2018-12-19T00:26:06.387Z,19.73
2018-12-19T00:28:32.341Z,20.40
2018-12-19T00:30:58.163Z,23.87
2018-12-19T00:33:24.054Z,20.00
2018-12-19T00:35:50.127Z,19.80
2018-12-19T00:40:48.561Z,21.60
2018-12-19T00:43:14.398Z,19.97
2018-12-19T00:45:40.262Z,18.90
2018-12-19T00:48:06.701Z,16.77
2018-12-19T00:50:32.569Z,19.17
2018-12-19T00:52:58.450Z,18.37
2018-12-19T00:55:24.374Z,17.97
2018-12-19T00:57:50.342Z,17.83
2018-12-19T01:00:16.372Z,19.87
2018-12-19T01:02:42.258Z,16.97
2018-12-19T01:05:08.098Z,20.03
2018-12-19T01:07:33.958Z,22.60
2018-12-19T01:09:59.833Z,20.73
2018-12-19T01:12:25.666Z,19.30
2018-12-19T01:14:51.529Z,20.20
2018-12-19T01:17:17.417Z,20.80
2018-12-19T01:19:43.291Z,19.97
2018-12-19T01:22:09.140Z,20.53
2018-12-19T01:24:34.989Z,19.23
2018-12-19T01:27:00.862Z,18.33
2018-12-19T01:29:26.740Z,21.07
2018-12-19T01:31:52.574Z,18.53
2018-12-19T01:34:18.412Z,20.30
2018-12-19T01:36:44.309Z,15.67
2018-12-19T01:39:10.173Z,18.03
2018-12-19T01:41:36.053Z,17.90
2018-12-19T01:44:01.895Z,19.73
2018-12-19T01:46:27.769Z,22.40
2018-12-19T01:48:53.605Z,22.77
2018-12-19T01:51:19.802Z,21.73
2018-12-19T01:53:45.858Z,20.70
2018-12-19T01:56:11.749Z,19.77
2018-12-19T01:58:37.598Z,20.03
2018-12-19T02:01:03.441Z,22.40
2018-12-19T02:03:29.349Z,19.00
2018-12-19T02:05:55.203Z,20.57
2018-12-19T02:08:21.044Z,21.13
2018-12-19T02:10:46.966Z,23.33
2018-12-19T02:13:12.817Z,23.30
2018-12-19T02:15:38.662Z,22.73
2018-12-19T02:18:04.629Z,23.90
2018-12-19T02:20:30.471Z,21.00
2018-12-19T02:22:56.342Z,19.20
2018-12-19T02:25:22.234Z,20.90
2018-12-19T02:27:48.102Z,19.30
2018-12-19T02:30:14.033Z,19.80
2018-12-19T02:32:39.907Z,17.57
2018-12-19T02:35:05.750Z,16.30
2018-12-19T02:37:31.699Z,18.77
2018-12-19T02:39:57.547Z,18.17
2018-12-19T02:42:23.397Z,17.43
2018-12-19T02:44:49.362Z,18.50
2018-12-19T02:47:15.233Z,19.10
2018-12-19T02:49:41.098Z,17.50
2018-12-19T02:52:06.950Z,17.67
2018-12-19T02:54:32.816Z,16.00
2018-12-19T02:56:58.685Z,17.43
2018-12-19T02:59:24.547Z,19.57
2018-12-19T03:01:50.409Z,18.47
2018-12-19T03:04:16.270Z,18.73
2018-12-19T03:06:42.120Z,17.03
2018-12-19T03:09:07.981Z,17.50
2018-12-19T03:11:33.855Z,16.17
2018-12-19T03:13:59.809Z,19.17
2018-12-19T03:16:25.776Z,18.00
2018-12-19T03:18:51.698Z,18.77
2018-12-19T03:21:17.520Z,18.03
2018-12-19T03:23:43.359Z,18.77
2018-12-19T03:26:09.207Z,20.43
2018-12-19T03:28:35.116Z,20.20
2018-12-19T03:31:00.948Z,22.10
2018-12-19T03:33:26.899Z,19.60
2018-12-19T03:35:52.788Z,21.03
2018-12-19T03:38:23.659Z,20.73
2018-12-19T03:40:49.553Z,19.33
2018-12-19T03:43:15.400Z,18.80
2018-12-19T03:45:41.254Z,18.00
2018-12-19T03:48:09.127Z,19.20
2018-12-19T03:50:34.993Z,20.20
2018-12-19T03:53:00.839Z,20.90
2018-12-19T03:55:26.701Z,19.20
2018-12-19T03:57:52.694Z,18.20
2018-12-19T04:00:18.538Z,21.43
2018-12-19T04:02:44.451Z,20.50
2018-12-19T04:05:10.330Z,22.80
2018-12-19T04:07:36.184Z,22.10
2018-12-19T04:10:03.807Z,23.10
2018-12-19T04:12:29.779Z,21.27
2018-12-19T04:14:55.653Z,21.43
2018-12-19T04:17:21.499Z,22.70
2018-12-19T04:19:54.483Z,20.90
2018-12-19T04:22:20.367Z,24.63
2018-12-19T04:27:39.097Z,20.77
2018-12-19T04:30:05.005Z,23.33
2018-12-19T04:32:31.266Z,21.77
2018-12-19T04:34:57.113Z,19.93
2018-12-19T04:37:22.955Z,21.83
2018-12-19T04:39:48.964Z,22.57
2018-12-19T04:42:14.817Z,20.50
2018-12-19T04:44:47.615Z,21.97
2018-12-19T04:47:13.461Z,21.00
2018-12-19T04:49:39.326Z,24.33
2018-12-19T04:52:05.156Z,23.63
2018-12-19T04:54:31.156Z,22.50
2018-12-19T04:56:57.017Z,21.50
2018-12-19T04:59:22.903Z,22.10
2018-12-19T05:01:48.757Z,21.80
2018-12-19T05:04:14.652Z,23.57
2018-12-19T05:06:40.548Z,24.43
2018-12-19T05:09:06.737Z,22.37
2018-12-19T05:11:33.198Z,24.40
2018-12-19T05:13:59.042Z,20.00
2018-12-19T05:16:24.946Z,21.30
2018-12-19T05:18:50.821Z,22.70
2018-12-19T05:21:23.624Z,21.23
2018-12-19T05:23:49.587Z,21.27
2018-12-19T05:26:15.503Z,21.67
2018-12-19T05:28:41.394Z,21.13
2018-12-19T05:31:07.266Z,21.47
2018-12-19T05:33:33.106Z,20.63
2018-12-19T05:35:58.975Z,17.73
2018-12-19T05:38:24.810Z,19.47
2018-12-19T05:40:50.695Z,17.73
2018-12-19T05:43:16.733Z,19.57
2018-12-19T05:45:42.598Z,17.37
2018-12-19T05:48:08.458Z,19.03
2018-12-19T05:50:34.586Z,19.20
2018-12-19T05:53:00.443Z,21.30
2018-12-19T05:55:26.290Z,18.53
2018-12-19T05:57:52.178Z,19.33
2018-12-19T06:00:18.054Z,20.57
2018-12-19T06:02:43.914Z,17.57
2018-12-19T06:05:09.782Z,17.80
2018-12-19T06:07:35.618Z,20.37
2018-12-19T06:10:01.620Z,20.00
2018-12-19T06:12:27.481Z,22.50
2018-12-19T06:14:53.359Z,24.20
2018-12-19T06:17:19.369Z,23.07
2018-12-19T06:19:45.324Z,20.43
2018-12-19T06:22:11.190Z,21.63
2018-12-19T06:24:37.095Z,22.40
2018-12-19T06:27:02.971Z,21.53
2018-12-19T06:29:28.906Z,22.40
2018-12-19T06:31:54.814Z,19.97
2018-12-19T06:34:20.687Z,20.93
2018-12-19T06:36:46.584Z,21.93
2018-12-19T06:39:12.450Z,22.20
2018-12-19T06:41:38.494Z,20.00
2018-12-19T06:44:04.322Z,19.40
2018-12-19T06:46:30.198Z,22.77
2018-12-19T06:48:56.041Z,18.83
2018-12-19T06:51:21.917Z,21.17
2018-12-19T06:53:47.769Z,22.13
2018-12-19T06:56:13.709Z,21.60
2018-12-19T06:58:39.574Z,22.97
2018-12-19T07:01:05.429Z,20.37
2018-12-19T07:03:31.306Z,19.43
2018-12-19T07:05:57.164Z,22.20
2018-12-19T07:08:23.014Z,21.20
2018-12-19T07:10:48.902Z,22.67
2018-12-19T07:13:14.777Z,23.87
2018-12-19T07:15:40.628Z,24.43
2018-12-19T07:18:06.466Z,26.27
2018-12-19T07:20:32.334Z,28.67
2018-12-19T07:22:58.200Z,27.57
2018-12-19T07:25:24.126Z,20.40
2018-12-19T07:27:49.974Z,22.20
2018-12-19T07:30:15.897Z,21.40
2018-12-19T07:32:41.773Z,19.83
2018-12-19T07:35:07.702Z,17.07
2018-12-19T07:37:33.562Z,18.50
2018-12-19T07:39:59.446Z,18.57
2018-12-19T07:42:25.283Z,18.90
2018-12-19T07:44:51.178Z,18.10
2018-12-19T07:47:17.010Z,18.60
2018-12-19T07:49:42.884Z,18.40
2018-12-19T07:52:08.739Z,18.70
2018-12-19T07:54:41.473Z,16.93
2018-12-19T07:57:07.345Z,25.90
2018-12-19T07:59:33.205Z,19.07
2018-12-19T08:01:59.097Z,20.60
2018-12-19T08:04:25.283Z,20.30
2018-12-19T08:06:52.432Z,20.87
2018-12-19T08:09:18.442Z,21.93
2018-12-19T08:11:44.302Z,26.53
2018-12-19T08:14:10.135Z,20.60
2018-12-19T08:16:36.159Z,20.73
2018-12-19T08:19:02.126Z,20.20
2018-12-19T08:21:27.986Z,18.23
2018-12-19T08:23:53.853Z,20.47
2018-12-19T08:26:19.692Z,20.60
2018-12-19T08:28:45.874Z,20.20
2018-12-19T08:31:11.717Z,18.70
2018-12-19T08:33:37.566Z,18.20
2018-12-19T08:36:03.486Z,19.20
2018-12-19T08:38:29.363Z,18.07
2018-12-19T08:40:58.779Z,15.67
2018-12-19T08:43:23.073Z,16.10
2018-12-19T08:45:49.354Z,16.07
2018-12-19T08:48:15.218Z,14.80
2018-12-19T08:50:41.087Z,18.07
2018-12-19T08:53:06.943Z,17.97
2018-12-19T08:55:32.798Z,15.43
2018-12-19T08:57:58.651Z,17.13
2018-12-19T09:00:24.539Z,17.07
2018-12-19T09:02:50.445Z,17.70
2018-12-19T09:05:16.344Z,18.30
2018-12-19T09:07:42.230Z,17.47
2018-12-19T09:10:08.229Z,15.70
2018-12-19T09:12:34.201Z,17.60
2018-12-19T09:15:00.580Z,18.50
2018-12-19T09:17:27.056Z,14.13
2018-12-19T09:19:53.323Z,17.80
2018-12-19T09:22:19.336Z,15.23
2018-12-19T09:24:45.889Z,13.60
2018-12-19T09:27:11.762Z,16.97
2018-12-19T09:29:37.628Z,14.40
2018-12-19T09:32:03.470Z,13.63
2018-12-19T09:34:29.335Z,13.83
2018-12-19T09:36:55.277Z,16.40
2018-12-19T09:39:21.149Z,14.30
2018-12-19T09:41:47.015Z,14.03
2018-12-19T09:44:12.890Z,15.57
2018-12-19T09:46:38.797Z,15.60
2018-12-19T09:49:04.654Z,15.00
2018-12-19T09:51:30.614Z,13.60
2018-12-19T09:53:56.438Z,14.50
2018-12-19T09:56:22.319Z,15.17
2018-12-19T09:58:48.150Z,15.50
2018-12-19T10:01:14.046Z,15.33
2018-12-19T10:03:39.910Z,15.63
2018-12-19T10:06:05.776Z,14.20
2018-12-19T10:08:31.643Z,15.20
2018-12-19T10:10:57.533Z,14.87
2018-12-19T10:13:23.386Z,16.10
2018-12-19T10:18:21.182Z,16.03
2018-12-19T10:20:47.834Z,15.47
2018-12-19T10:23:13.721Z,14.53
2018-12-19T10:25:39.724Z,16.80
2018-12-19T10:28:05.698Z,14.63
2018-12-19T10:30:33.563Z,14.13
2018-12-19T10:32:59.430Z,15.30
2018-12-19T10:35:25.292Z,17.37
2018-12-19T10:37:51.161Z,17.67
2018-12-19T10:40:17.156Z,15.53
2018-12-19T10:42:43.018Z,15.80
2018-12-19T10:45:09.120Z,15.13
2018-12-19T10:47:35.950Z,16.97
2018-12-19T10:50:02.978Z,15.40
2018-12-19T10:52:28.950Z,16.03
2018-12-19T10:54:54.858Z,13.77
2018-12-19T10:57:20.699Z,14.27
2018-12-19T10:59:46.594Z,16.10
2018-12-19T11:02:13.591Z,14.87
2018-12-19T11:04:39.484Z,15.70
2018-12-19T11:07:05.357Z,15.60
2018-12-19T11:09:31.234Z,16.63
2018-12-19T11:11:58.729Z,16.00
2018-12-19T11:14:26.535Z,16.30
2018-12-19T11:16:52.380Z,15.20
2018-12-19T11:19:18.226Z,16.70
2018-12-19T11:21:44.082Z,15.50
2018-12-19T11:24:10.086Z,14.50
2018-12-19T11:26:36.143Z,15.83
2018-12-19T11:29:02.862Z,16.17
2018-12-19T11:31:28.983Z,17.17
2018-12-19T11:33:54.818Z,16.23
2018-12-19T11:36:20.680Z,17.20
2018-12-19T11:38:46.511Z,19.10
2018-12-19T11:41:12.375Z,16.70
2018-12-19T11:43:38.208Z,15.83
2018-12-19T11:46:04.054Z,16.87
2018-12-19T11:48:29.990Z,15.87
2018-12-19T11:50:55.826Z,17.40
2018-12-19T11:53:21.721Z,18.30
2018-12-19T11:55:47.710Z,16.63
2018-12-19T11:58:13.568Z,17.90
2018-12-19T12:00:39.450Z,18.57
2018-12-19T12:03:05.275Z,18.87
2018-12-19T12:05:31.134Z,17.90
2018-12-19T12:07:56.987Z,18.60
2018-12-19T12:10:22.810Z,16.63
2018-12-19T12:12:48.679Z,21.10
2018-12-19T12:15:14.550Z,18.53
2018-12-19T12:17:40.457Z,19.43
2018-12-19T12:20:06.535Z,20.53
2018-12-19T12:22:32.512Z,21.43
2018-12-19T12:24:58.364Z,22.20
2018-12-19T12:27:24.248Z,23.30
2018-12-19T12:29:50.278Z,21.90
2018-12-19T12:32:16.180Z,20.07
2018-12-19T12:34:42.019Z,19.93
2018-12-19T12:37:07.925Z,19.07
2018-12-19T12:39:33.814Z,23.47
2018-12-19T12:41:59.691Z,19.60
2018-12-19T12:44:25.682Z,23.23
2018-12-19T12:46:51.510Z,20.77
2018-12-19T12:49:17.398Z,22.03
2018-12-19T12:51:43.226Z,21.40
2018-12-19T12:54:09.108Z,22.67
2018-12-19T12:56:34.967Z,21.37
2018-12-19T12:59:00.798Z,19.33
2018-12-19T13:01:26.639Z,19.40
2018-12-19T13:03:52.531Z,21.40
2018-12-19T13:06:18.354Z,19.93
2018-12-19T13:08:44.235Z,21.70
2018-12-19T13:11:10.187Z,23.93
2018-12-19T13:13:36.086Z,22.27
2018-12-19T13:16:02.047Z,22.47
2018-12-19T13:18:27.871Z,20.93
2018-12-19T13:20:53.907Z,23.00
2018-12-19T13:23:19.750Z,19.80
2018-12-19T13:25:45.678Z,21.47
2018-12-19T13:28:11.786Z,21.10
2018-12-19T13:30:37.661Z,22.33
2018-12-19T13:33:03.510Z,22.50
2018-12-19T13:35:29.393Z,23.97
2018-12-19T13:37:55.385Z,21.10
2018-12-19T13:40:21.277Z,22.33
2018-12-19T13:42:47.135Z,20.97
2018-12-19T13:45:12.982Z,23.20
2018-12-19T13:47:38.877Z,22.80
2018-12-19T13:50:05.739Z,23.27
2018-12-19T13:52:31.582Z,23.37
2018-12-19T13:54:57.458Z,23.50
2018-12-19T13:57:23.325Z,24.13
2018-12-19T13:59:49.198Z,22.70
2018-12-19T14:02:15.069Z,23.63
2018-12-19T14:04:41.270Z,22.03
2018-12-19T14:07:08.359Z,25.27
2018-12-19T14:09:34.464Z,24.53
2018-12-19T14:12:00.334Z,24.27
2018-12-19T14:14:26.171Z,21.57
2018-12-19T14:16:52.098Z,27.80
2018-12-19T14:19:17.935Z,25.60
2018-12-19T14:21:43.869Z,22.47
2018-12-19T14:24:09.753Z,24.50
2018-12-19T14:26:35.649Z,22.10
2018-12-19T14:29:01.604Z,20.50
2018-12-19T14:31:27.438Z,22.37
2018-12-19T14:33:53.266Z,21.10
2018-12-19T14:36:19.226Z,19.23
2018-12-19T14:38:45.087Z,20.40
2018-12-19T14:41:10.958Z,22.17
2018-12-19T14:43:36.827Z,22.20
2018-12-19T14:46:02.679Z,22.00
2018-12-19T14:48:28.530Z,22.73
2018-12-19T14:50:54.557Z,19.33
2018-12-19T14:53:20.426Z,22.40
2018-12-19T14:55:46.298Z,22.77
2018-12-19T14:58:12.149Z,22.10
2018-12-19T15:00:38.006Z,19.83
2018-12-19T15:03:03.901Z,20.10
2018-12-19T15:05:29.773Z,19.13
2018-12-19T15:07:55.686Z,17.50
2018-12-19T15:10:21.703Z,20.50
2018-12-19T15:12:47.581Z,19.60
2018-12-19T15:15:13.452Z,19.17
2018-12-19T15:17:39.475Z,20.20
2018-12-19T15:20:05.522Z,19.97
2018-12-19T15:22:31.497Z,22.03
2018-12-19T15:24:57.342Z,21.60
2018-12-19T15:27:23.205Z,24.83
2018-12-19T15:29:49.085Z,27.03
2018-12-19T15:32:14.930Z,21.30
2018-12-19T15:34:40.799Z,21.30
2018-12-19T15:37:06.674Z,22.10
2018-12-19T15:39:32.543Z,25.40
2018-12-19T15:41:58.390Z,21.80
2018-12-19T15:44:24.273Z,28.20
2018-12-19T15:46:50.219Z,39.30
2018-12-19T15:49:16.112Z,27.30
2018-12-19T15:51:42.031Z,21.40
2018-12-19T15:54:07.896Z,27.37
2018-12-19T15:56:33.763Z,19.90
2018-12-19T15:58:59.669Z,22.70
2018-12-19T16:01:25.523Z,20.07
2018-12-19T16:03:51.409Z,20.93
2018-12-19T16:06:17.319Z,20.87
2018-12-19T16:08:43.172Z,23.53
2018-12-19T16:11:09.058Z,22.50
2018-12-19T16:13:35.032Z,20.40
2018-12-19T16:16:01.166Z,22.87
2018-12-19T16:18:27.080Z,22.00
2018-12-19T16:20:52.926Z,21.37
2018-12-19T16:23:18.775Z,21.57
2018-12-19T16:25:44.646Z,21.07
2018-12-19T16:28:10.519Z,18.40
2018-12-19T16:30:36.378Z,20.77
2018-12-19T16:33:02.218Z,20.23
2018-12-19T16:35:28.178Z,21.50
2018-12-19T16:37:54.029Z,19.10
2018-12-19T16:40:19.969Z,23.30
2018-12-19T16:42:46.173Z,19.97
2018-12-19T16:45:12.557Z,18.90
2018-12-19T16:47:38.473Z,21.50
2018-12-19T16:50:05.144Z,23.00
2018-12-19T16:52:31.000Z,21.50
2018-12-19T16:54:56.866Z,21.20
2018-12-19T16:57:22.732Z,20.53
2018-12-19T16:59:48.709Z,20.47
2018-12-19T17:02:14.571Z,21.87
2018-12-19T17:04:40.448Z,19.10
2018-12-19T17:07:06.314Z,17.67
2018-12-19T17:09:32.150Z,20.90
2018-12-19T17:11:58.027Z,19.60
2018-12-19T17:14:23.908Z,17.90
2018-12-19T17:16:49.798Z,21.37
2018-12-19T17:19:15.649Z,20.83
2018-12-19T17:21:41.498Z,22.53
2018-12-19T17:24:07.334Z,21.63
2018-12-19T17:26:33.187Z,21.73
2018-12-19T17:28:59.045Z,20.13
2018-12-19T17:31:24.915Z,21.97
2018-12-19T17:33:50.801Z,23.63
2018-12-19T17:36:16.660Z,22.23
2018-12-19T17:38:42.532Z,21.13
2018-12-19T17:41:08.537Z,20.37
2018-12-19T17:43:34.466Z,26.40
2018-12-19T17:46:00.310Z,23.60
2018-12-19T17:48:26.191Z,21.87
2018-12-19T17:50:52.043Z,26.20
2018-12-19T17:53:17.910Z,27.27
2018-12-19T17:55:43.798Z,22.67
2018-12-19T17:58:09.633Z,18.90
2018-12-19T18:00:35.762Z,19.63
2018-12-19T18:03:01.649Z,17.37
2018-12-19T18:05:27.510Z,19.63
2018-12-19T18:07:53.362Z,19.87
2018-12-19T18:10:19.222Z,20.00
2018-12-19T18:12:45.062Z,22.53
2018-12-19T18:15:11.013Z,20.80
2018-12-19T18:17:36.873Z,20.63
2018-12-19T18:20:04.640Z,20.10
2018-12-19T18:22:30.474Z,20.83
2018-12-19T18:24:56.314Z,21.13
2018-12-19T18:27:22.168Z,20.10
2018-12-19T18:29:48.119Z,21.30
2018-12-19T18:32:14.002Z,21.87
2018-12-19T18:34:39.875Z,22.97
2018-12-19T18:37:05.791Z,22.50
2018-12-19T18:39:31.747Z,21.60
2018-12-19T18:41:57.626Z,21.90
2018-12-19T18:44:23.670Z,23.37
2018-12-19T18:46:49.674Z,23.70
2018-12-19T18:49:15.787Z,21.83
2018-12-19T18:51:41.763Z,21.57
2018-12-19T18:54:07.632Z,21.10
2018-12-19T18:56:33.983Z,21.90
2018-12-19T18:58:59.929Z,23.67
2018-12-19T19:01:25.833Z,22.00
2018-12-19T19:03:51.997Z,25.60
2018-12-19T19:06:17.967Z,21.00
2018-12-19T19:08:43.894Z,24.07
2018-12-19T19:11:09.729Z,23.10
2018-12-19T19:13:35.693Z,21.40
2018-12-19T19:16:01.605Z,22.07
2018-12-19T19:18:27.489Z,23.47
2018-12-19T19:20:53.333Z,22.37
2018-12-19T19:23:19.203Z,24.17
2018-12-19T19:25:45.054Z,21.87
2018-12-19T19:28:10.917Z,23.30
2018-12-19T19:30:36.790Z,23.50
2018-12-19T19:33:02.753Z,22.07
2018-12-19T19:35:28.739Z,22.70
2018-12-19T19:37:54.614Z,27.67
2018-12-19T19:40:20.526Z,24.50
2018-12-19T19:42:46.668Z,22.33
2018-12-19T19:45:12.726Z,23.10
2018-12-19T19:47:38.572Z,25.50
2018-12-19T19:50:04.771Z,24.10
2018-12-19T19:52:30.646Z,23.17
2018-12-19T19:54:56.686Z,25.20
2018-12-19T19:57:22.637Z,26.60
2018-12-19T19:59:48.555Z,28.10
2018-12-19T20:02:14.416Z,26.37
2018-12-19T20:04:40.513Z,24.73
2018-12-19T20:07:06.506Z,24.70
2018-12-19T20:09:32.379Z,25.00
2018-12-19T20:11:58.225Z,26.23
2018-12-19T20:14:24.171Z,26.00
2018-12-19T20:16:56.160Z,26.73
2018-12-19T20:19:22.051Z,26.10
2018-12-19T20:21:48.046Z,25.37
2018-12-19T20:24:13.940Z,26.20
2018-12-19T20:26:39.833Z,27.17
2018-12-19T20:29:05.831Z,25.60
2018-12-19T20:31:31.711Z,29.30
2018-12-19T20:33:57.540Z,31.10
2018-12-19T20:36:23.420Z,26.90
2018-12-19T20:38:49.257Z,27.60
2018-12-19T20:41:15.123Z,27.70
2018-12-19T20:43:40.969Z,26.97
2018-12-19T20:46:06.860Z,27.93
2018-12-19T20:48:32.707Z,28.50
2018-12-19T20:50:58.554Z,26.73
2018-12-19T20:53:24.413Z,26.90
2018-12-19T20:55:50.370Z,28.57
2018-12-19T20:58:16.252Z,29.20
2018-12-19T21:00:42.326Z,28.07
2018-12-19T21:03:08.188Z,28.13
2018-12-19T21:05:34.061Z,30.60
2018-12-19T21:07:59.969Z,30.90
2018-12-19T21:10:25.810Z,27.43
2018-12-19T21:12:51.683Z,29.07
2018-12-19T21:15:17.589Z,30.67
2018-12-19T21:17:49.645Z,28.07
2018-12-19T21:20:15.508Z,29.30
2018-12-19T21:22:41.465Z,26.37
2018-12-19T21:25:07.419Z,27.93
2018-12-19T21:27:33.378Z,27.10
2018-12-19T21:29:59.207Z,27.33
2018-12-19T21:32:25.047Z,26.50
2018-12-19T21:34:51.089Z,29.17
2018-12-19T21:37:17.026Z,27.87
2018-12-19T21:39:43.023Z,31.47
2018-12-19T21:42:09.023Z,26.67
2018-12-19T21:44:34.932Z,26.63
2018-12-19T21:47:01.013Z,30.57
2018-12-19T21:49:27.122Z,27.20
2018-12-19T21:51:53.245Z,30.27
2018-12-19T21:54:19.177Z,28.70
2018-12-19T21:56:47.186Z,31.50
2018-12-19T21:59:13.229Z,28.90
2018-12-19T22:01:39.203Z,29.87
2018-12-19T22:04:05.123Z,28.40
2018-12-19T22:06:31.073Z,31.13
2018-12-19T22:08:57.511Z,32.23
2018-12-19T22:11:23.730Z,30.07
2018-12-19T22:13:50.192Z,30.63
2018-12-19T22:16:23.185Z,29.87
2018-12-19T22:18:49.238Z,28.23
2018-12-19T22:21:15.283Z,31.40
2018-12-19T22:23:41.332Z,28.67
2018-12-19T22:26:07.383Z,28.60
2018-12-19T22:28:33.347Z,29.80
2018-12-19T22:30:59.195Z,29.97
2018-12-19T22:33:25.085Z,28.80
2018-12-19T22:35:51.143Z,30.90
2018-12-19T22:38:24.129Z,31.87
2018-12-19T22:40:50.170Z,32.77
2018-12-19T22:43:26.605Z,35.00
2018-12-19T22:45:53.017Z,35.23
2018-12-19T22:48:18.914Z,32.60
2018-12-19T22:50:44.877Z,32.23
2018-12-19T22:53:10.847Z,31.93
2018-12-19T22:55:36.766Z,32.17
2018-12-19T22:58:02.657Z,34.67
2018-12-19T23:00:41.512Z,28.20
2018-12-19T23:03:07.525Z,28.60
2018-12-19T23:05:39.489Z,30.00
2018-12-19T23:08:05.401Z,29.33
2018-12-19T23:10:31.250Z,29.10
2018-12-19T23:12:57.110Z,29.73
2018-12-19T23:15:24.239Z,29.93
2018-12-19T23:17:52.145Z,29.00
2018-12-19T23:20:18.550Z,31.20
2018-12-19T23:22:44.549Z,29.73
2018-12-19T23:25:10.590Z,30.80
2018-12-19T23:27:36.595Z,31.77
2018-12-19T23:30:04.968Z,36.03
2018-12-19T23:32:30.923Z,36.50
2018-12-19T23:34:56.823Z,35.77
2018-12-19T23:37:22.962Z,33.00
2018-12-19T23:39:48.913Z,37.07
2018-12-19T23:42:14.909Z,33.37
2018-12-19T23:44:40.999Z,32.40
2018-12-19T23:47:07.025Z,34.90
2018-12-19T23:49:32.931Z,31.67
2018-12-19T23:51:58.861Z,28.20
2018-12-19T23:54:29.073Z,31.53
2018-12-19T23:56:52.564Z,32.10
2018-12-19T23:59:18.643Z,31.23
